createdAt,value
2022-08-17T00:01:31.464Z,33.03
2022-08-17T00:04:18.982Z,29.67
2022-08-17T00:06:46.237Z,33.50
2022-08-17T00:09:18.344Z,30.63
2022-08-17T00:12:41.176Z,32.28
2022-08-17T00:14:34.869Z,30.48
2022-08-17T00:17:03.719Z,31.58
2022-08-17T00:19:32.539Z,37.95
2022-08-17T00:22:33.948Z,31.27
2022-08-17T00:24:47.816Z,34.17
2022-08-17T00:27:14.945Z,30.38
2022-08-17T00:29:42.232Z,31.35
2022-08-17T00:33:12.501Z,34.80
2022-08-17T00:34:56.429Z,30.85
2022-08-17T00:37:23.525Z,33.50
2022-08-17T00:39:50.698Z,31.30
2022-08-17T00:42:19.277Z,32.90
2022-08-17T00:44:46.432Z,34.88
2022-08-17T00:47:13.537Z,29.50
2022-08-17T00:49:40.783Z,30.17
2022-08-17T00:52:15.270Z,32.78
2022-08-17T00:54:43.539Z,32.53
2022-08-17T01:00:01.998Z,29.17
2022-08-17T01:02:34.913Z,29.92
2022-08-17T01:05:08.725Z,32.10
2022-08-17T01:07:37.932Z,30.00
2022-08-17T01:10:06.658Z,29.65
2022-08-17T01:12:35.052Z,28.23
2022-08-17T01:15:02.164Z,31.08
2022-08-17T01:17:29.705Z,26.55
2022-08-17T01:19:56.813Z,25.17
2022-08-17T01:22:24.564Z,25.73
2022-08-17T01:24:53.760Z,24.58
2022-08-17T01:27:21.761Z,25.65
2022-08-17T01:29:51.219Z,25.10
2022-08-17T01:32:19.313Z,25.33
2022-08-17T01:34:50.472Z,23.55
2022-08-17T01:37:18.740Z,21.58
2022-08-17T01:39:50.056Z,24.20
2022-08-17T01:42:23.425Z,24.23
2022-08-17T01:44:53.768Z,21.85
2022-08-17T01:47:20.853Z,27.85
2022-08-17T01:49:48.686Z,26.92
2022-08-17T01:52:16.348Z,26.10
2022-08-17T01:54:46.085Z,27.35
2022-08-17T01:57:13.900Z,27.05
2022-08-17T01:59:41.057Z,26.52
2022-08-17T02:02:08.722Z,27.27
2022-08-17T02:04:35.865Z,30.02
2022-08-17T02:07:03.018Z,29.05
2022-08-17T02:09:30.946Z,32.47
2022-08-17T02:11:59.662Z,34.72
2022-08-17T02:16:54.410Z,35.85
2022-08-17T02:19:21.872Z,32.05
2022-08-17T02:21:50.387Z,31.05
2022-08-17T02:25:00.026Z,35.13
2022-08-17T02:27:12.749Z,33.25
2022-08-17T02:29:39.872Z,33.85
2022-08-17T02:32:07.091Z,35.33
2022-08-17T02:34:34.205Z,39.92
2022-08-17T02:37:01.289Z,37.88
2022-08-17T02:39:28.418Z,42.67
2022-08-17T02:42:02.342Z,35.72
2022-08-17T02:44:38.891Z,43.65
2022-08-17T02:47:08.200Z,42.08
2022-08-17T02:49:35.357Z,45.10
2022-08-17T02:52:06.566Z,39.97
2022-08-17T02:54:40.289Z,44.90
2022-08-17T02:57:09.170Z,41.05
2022-08-17T02:59:36.273Z,41.53
2022-08-17T03:02:04.336Z,39.33
2022-08-17T03:04:35.269Z,40.05
2022-08-17T03:07:02.796Z,39.15
2022-08-17T03:09:29.884Z,41.88
2022-08-17T03:12:04.847Z,39.53
2022-08-17T03:14:32.421Z,39.65
2022-08-17T03:16:59.528Z,41.90
2022-08-17T03:19:26.658Z,40.53
2022-08-17T03:21:55.066Z,39.25
2022-08-17T03:24:25.132Z,37.47
2022-08-17T03:26:55.992Z,38.13
2022-08-17T03:29:23.114Z,41.88
2022-08-17T03:31:50.657Z,39.00
2022-08-17T03:34:17.926Z,36.63
2022-08-17T03:36:45.346Z,37.00
2022-08-17T03:39:12.497Z,33.35
2022-08-17T03:41:39.651Z,31.75
2022-08-17T03:44:07.261Z,29.70
2022-08-17T03:46:53.008Z,29.40
2022-08-17T03:49:38.904Z,30.85
2022-08-17T03:52:25.011Z,31.67
2022-08-17T03:55:11.083Z,27.13
2022-08-17T03:57:38.221Z,26.10
2022-08-17T04:00:05.685Z,25.85
2022-08-17T04:02:33.767Z,24.67
2022-08-17T04:05:01.259Z,26.13
2022-08-17T04:07:29.574Z,24.67
2022-08-17T04:12:30.500Z,27.00
2022-08-17T04:14:57.848Z,28.95
2022-08-17T04:17:27.475Z,27.42
2022-08-17T04:19:55.158Z,26.20
2022-08-17T04:22:32.622Z,29.33
2022-08-17T04:25:15.978Z,29.15
2022-08-17T04:27:43.129Z,27.48
2022-08-17T04:30:10.719Z,25.83
2022-08-17T04:33:19.147Z,26.60
2022-08-17T04:35:41.130Z,32.10
2022-08-17T04:38:09.173Z,33.17
2022-08-17T04:40:55.161Z,30.70
2022-08-17T04:43:24.197Z,32.17
2022-08-17T04:45:56.289Z,32.78
2022-08-17T04:48:35.432Z,31.77
2022-08-17T04:51:04.873Z,32.13
2022-08-17T04:53:32.082Z,30.70
2022-08-17T04:55:59.315Z,30.55
2022-08-17T04:58:26.440Z,35.15
2022-08-17T05:00:53.577Z,35.85
2022-08-17T05:03:20.699Z,37.30
2022-08-17T05:05:49.522Z,36.97
2022-08-17T05:08:18.079Z,36.13
2022-08-17T05:10:45.798Z,32.72
2022-08-17T05:13:18.105Z,37.97
2022-08-17T05:15:47.821Z,35.40
2022-08-17T05:18:15.737Z,35.67
2022-08-17T05:20:43.305Z,27.88
2022-08-17T05:23:12.105Z,32.33
2022-08-17T05:25:40.967Z,32.22
2022-08-17T05:28:08.148Z,34.13
2022-08-17T05:30:36.391Z,31.05
2022-08-17T05:33:06.207Z,30.83
2022-08-17T05:35:35.271Z,27.27
2022-08-17T05:38:02.601Z,26.35
2022-08-17T05:40:32.683Z,23.92
2022-08-17T05:43:17.069Z,20.15
2022-08-17T05:45:55.139Z,17.40
2022-08-17T05:48:35.268Z,12.23
2022-08-17T05:51:28.435Z,15.60
2022-08-17T05:54:01.596Z,14.35
2022-08-17T05:56:40.802Z,14.02
2022-08-17T05:59:26.617Z,12.93
2022-08-17T06:01:57.916Z,11.13
2022-08-17T06:04:40.430Z,12.68
2022-08-17T06:07:13.992Z,10.35
2022-08-17T06:09:44.493Z,10.85
2022-08-17T06:12:14.341Z,9.63
2022-08-17T06:14:46.867Z,14.25
2022-08-17T06:17:16.265Z,10.93
2022-08-17T06:19:48.133Z,10.20
2022-08-17T06:22:17.178Z,8.77
2022-08-17T06:25:09.930Z,10.32
2022-08-17T06:27:45.279Z,8.88
2022-08-17T06:30:14.785Z,8.60
2022-08-17T06:32:45.932Z,10.43
2022-08-17T06:35:15.833Z,10.27
2022-08-17T06:37:48.827Z,8.90
2022-08-17T06:40:34.574Z,9.45
2022-08-17T06:43:14.282Z,9.55
2022-08-17T06:45:49.423Z,9.40
2022-08-17T06:48:24.441Z,9.55
2022-08-17T06:51:04.038Z,10.82
2022-08-17T06:53:41.873Z,11.73
2022-08-17T06:56:10.242Z,9.88
2022-08-17T06:58:40.359Z,10.63
2022-08-17T07:01:10.784Z,10.05
2022-08-17T07:03:54.584Z,10.32
2022-08-17T07:06:23.981Z,9.27
2022-08-17T07:09:14.359Z,9.95
2022-08-17T07:11:50.406Z,9.95
2022-08-17T07:14:28.455Z,9.95
2022-08-17T07:16:57.247Z,8.95
2022-08-17T07:19:25.461Z,11.75
2022-08-17T07:24:29.310Z,11.23
2022-08-17T07:27:12.951Z,14.13
2022-08-17T07:29:42.062Z,10.80
2022-08-17T07:32:10.589Z,11.82
2022-08-17T07:34:56.215Z,11.82
2022-08-17T07:37:23.316Z,11.23
2022-08-17T07:39:59.584Z,11.77
2022-08-17T07:42:40.703Z,11.27
2022-08-17T07:45:30.193Z,12.35
2022-08-17T07:48:15.883Z,12.40
2022-08-17T07:50:43.379Z,13.82
2022-08-17T07:53:18.205Z,13.85
2022-08-17T07:55:45.444Z,12.65
2022-08-17T07:58:20.187Z,13.48
2022-08-17T08:00:49.115Z,14.35
2022-08-17T08:03:25.955Z,13.75
2022-08-17T08:05:55.458Z,13.18
2022-08-17T08:08:25.670Z,15.05
2022-08-17T08:11:01.690Z,14.18
2022-08-17T08:13:30.735Z,14.90
2022-08-17T08:16:13.374Z,14.63
2022-08-17T08:18:54.124Z,13.07
2022-08-17T08:21:22.309Z,15.07
2022-08-17T08:23:52.403Z,15.70
2022-08-17T08:26:26.353Z,16.38
2022-08-17T08:29:01.411Z,15.65
2022-08-17T08:31:38.936Z,14.77
2022-08-17T08:34:59.057Z,15.15
2022-08-17T08:37:33.708Z,15.63
2022-08-17T08:40:08.905Z,15.75
2022-08-17T08:42:58.766Z,14.73
2022-08-17T08:45:32.727Z,12.10
2022-08-17T08:48:12.671Z,12.75
2022-08-17T08:50:50.730Z,12.75
2022-08-17T08:53:27.299Z,12.13
2022-08-17T08:55:57.559Z,13.45
2022-08-17T08:58:41.685Z,10.80
2022-08-17T09:01:31.262Z,13.45
2022-08-17T09:04:21.470Z,9.63
2022-08-17T09:07:03.004Z,10.65
2022-08-17T09:09:30.110Z,12.80
2022-08-17T09:12:03.597Z,11.02
2022-08-17T09:14:45.188Z,11.82
2022-08-17T09:17:14.434Z,12.80
2022-08-17T09:19:46.934Z,11.15
2022-08-17T09:22:30.470Z,10.77
2022-08-17T09:25:11.357Z,11.25
2022-08-17T09:27:38.462Z,11.45
2022-08-17T09:30:08.826Z,11.77
2022-08-17T09:32:41.253Z,11.70
2022-08-17T09:35:22.696Z,11.38
2022-08-17T09:37:49.900Z,12.55
2022-08-17T09:40:29.133Z,11.45
2022-08-17T09:43:08.809Z,10.90
2022-08-17T09:45:38.669Z,12.52
2022-08-17T09:48:31.943Z,14.18
2022-08-17T09:51:07.052Z,14.32
2022-08-17T09:53:36.315Z,12.90
2022-08-17T09:56:12.394Z,14.30
2022-08-17T09:58:56.365Z,12.63
2022-08-17T10:01:42.460Z,12.25
2022-08-17T10:04:20.113Z,8.85
2022-08-17T10:07:07.848Z,11.90
2022-08-17T10:09:43.992Z,14.77
2022-08-17T10:12:20.601Z,11.60
2022-08-17T10:15:14.756Z,11.25
2022-08-17T10:17:53.380Z,11.63
2022-08-17T10:20:26.780Z,12.13
2022-08-17T10:23:16.036Z,10.43
2022-08-17T10:26:04.440Z,12.45
2022-08-17T10:28:41.242Z,13.02
2022-08-17T10:31:33.722Z,11.70
2022-08-17T10:34:03.501Z,12.38
2022-08-17T10:36:38.784Z,12.38
2022-08-17T10:39:11.725Z,12.50
2022-08-17T10:41:50.337Z,11.82
2022-08-17T10:44:39.481Z,12.48
2022-08-17T10:47:07.713Z,13.60
2022-08-17T10:49:47.901Z,11.73
2022-08-17T10:52:21.901Z,13.02
2022-08-17T10:54:51.186Z,10.63
2022-08-17T10:57:28.161Z,11.75
2022-08-17T10:59:56.430Z,11.20
2022-08-17T11:02:27.401Z,12.73
2022-08-17T11:04:54.990Z,11.30
2022-08-17T11:07:22.083Z,12.23
2022-08-17T11:09:52.213Z,12.52
2022-08-17T11:12:37.537Z,13.82
2022-08-17T11:15:15.441Z,9.50
2022-08-17T11:18:02.856Z,12.05
2022-08-17T11:20:41.228Z,12.85
2022-08-17T11:23:11.309Z,10.93
2022-08-17T11:25:49.032Z,12.38
2022-08-17T11:28:21.684Z,12.93
2022-08-17T11:30:48.963Z,13.55
2022-08-17T11:33:31.754Z,13.75
2022-08-17T11:36:05.786Z,15.55
2022-08-17T11:38:43.892Z,15.32
2022-08-17T11:41:35.283Z,16.38
2022-08-17T11:44:11.879Z,11.95
2022-08-17T11:47:16.140Z,14.32
2022-08-17T11:50:27.870Z,16.85
2022-08-17T11:52:55.315Z,14.07
2022-08-17T11:55:39.595Z,13.63
2022-08-17T11:58:20.410Z,15.98
2022-08-17T12:00:49.481Z,14.65
2022-08-17T12:03:42.542Z,16.33
2022-08-17T12:06:43.460Z,18.08
2022-08-17T12:09:17.099Z,16.05
2022-08-17T12:11:55.688Z,17.33
2022-08-17T12:15:07.975Z,16.38
2022-08-17T12:17:41.135Z,18.83
2022-08-17T12:20:15.497Z,18.77
2022-08-17T12:22:48.207Z,18.52
2022-08-17T12:25:24.902Z,19.85
2022-08-17T12:28:06.099Z,20.45
2022-08-17T12:30:34.183Z,20.23
2022-08-17T12:33:01.432Z,20.05
2022-08-17T12:35:39.156Z,17.67
2022-08-17T12:38:26.845Z,22.20
2022-08-17T12:40:59.731Z,20.80
2022-08-17T12:43:30.701Z,20.05
2022-08-17T12:46:00.990Z,24.70
2022-08-17T12:48:40.521Z,23.20
2022-08-17T12:51:26.725Z,22.50
2022-08-17T12:53:55.543Z,24.40
2022-08-17T12:56:22.761Z,24.08
2022-08-17T12:58:56.553Z,24.73
2022-08-17T13:01:25.201Z,22.00
2022-08-17T13:03:54.198Z,24.15
2022-08-17T13:06:32.294Z,22.52
2022-08-17T13:09:10.082Z,19.27
2022-08-17T13:11:43.670Z,26.15
2022-08-17T13:14:11.425Z,26.63
2022-08-17T13:16:38.566Z,24.77
2022-08-17T13:19:10.237Z,27.30
2022-08-17T13:21:38.047Z,25.90
2022-08-17T13:24:11.280Z,29.42
2022-08-17T13:26:40.175Z,28.00
2022-08-17T13:29:09.770Z,31.10
2022-08-17T13:31:42.840Z,31.05
2022-08-17T13:34:19.775Z,29.88
2022-08-17T13:36:48.788Z,28.38
2022-08-17T13:39:19.974Z,28.90
2022-08-17T13:41:47.684Z,28.42
2022-08-17T13:44:35.150Z,30.60
2022-08-17T13:47:03.033Z,31.13
2022-08-17T13:49:41.898Z,31.88
2022-08-17T13:52:38.025Z,29.35
2022-08-17T13:55:16.404Z,28.35
2022-08-17T13:57:48.529Z,33.13
2022-08-17T14:00:32.811Z,33.58
2022-08-17T14:03:01.864Z,32.58
2022-08-17T14:05:29.832Z,32.70
2022-08-17T14:07:58.146Z,32.88
2022-08-17T14:10:26.321Z,32.03
2022-08-17T14:12:53.823Z,33.38
2022-08-17T14:15:55.173Z,34.45
2022-08-17T14:18:12.590Z,32.40
2022-08-17T14:20:40.197Z,35.58
2022-08-17T14:23:08.334Z,32.25
2022-08-17T14:25:35.540Z,29.30
2022-08-17T14:28:07.648Z,32.47
2022-08-17T14:30:35.612Z,29.50
2022-08-17T14:33:02.724Z,30.30
2022-08-17T14:35:29.852Z,30.35
2022-08-17T14:37:57.090Z,31.35
2022-08-17T14:40:25.198Z,26.77
2022-08-17T14:45:31.657Z,28.48
2022-08-17T14:48:00.329Z,28.20
2022-08-17T14:50:27.448Z,26.90
2022-08-17T14:52:57.988Z,24.45
2022-08-17T14:55:25.381Z,27.45
2022-08-17T14:57:52.648Z,26.40
2022-08-17T15:00:19.997Z,24.85
2022-08-17T15:02:53.611Z,25.90
2022-08-17T15:05:22.253Z,28.77
2022-08-17T15:07:49.565Z,28.27
2022-08-17T15:10:17.505Z,24.73
2022-08-17T15:12:44.618Z,26.10
2022-08-17T15:15:12.932Z,26.85
2022-08-17T15:17:44.737Z,27.75
2022-08-17T15:20:21.195Z,28.70
2022-08-17T15:22:49.816Z,27.67
2022-08-17T15:25:17.244Z,30.00
2022-08-17T15:27:44.419Z,34.42
2022-08-17T15:30:11.993Z,26.45
2022-08-17T15:32:40.589Z,27.08
2022-08-17T15:35:11.742Z,26.17
2022-08-17T15:37:40.178Z,27.35
2022-08-17T15:40:07.963Z,26.67
2022-08-17T15:42:35.696Z,24.73
2022-08-17T15:45:06.487Z,26.15
2022-08-17T15:47:33.630Z,25.50
2022-08-17T15:50:01.130Z,24.33
2022-08-17T15:52:32.853Z,28.77
2022-08-17T15:55:01.090Z,26.33
2022-08-17T15:57:28.311Z,27.40
2022-08-17T15:59:58.675Z,27.48
2022-08-17T16:03:16.042Z,27.35
2022-08-17T16:05:21.965Z,26.70
2022-08-17T16:07:51.742Z,27.35
2022-08-17T16:10:19.564Z,26.92
2022-08-17T16:12:47.677Z,26.98
2022-08-17T16:15:16.177Z,26.63
2022-08-17T16:17:43.386Z,27.40
2022-08-17T16:20:19.634Z,30.50
2022-08-17T16:22:47.896Z,28.13
2022-08-17T16:25:17.502Z,28.58
2022-08-17T16:27:44.693Z,27.73
2022-08-17T16:30:17.397Z,29.45
2022-08-17T16:32:45.419Z,29.25
2022-08-17T16:35:17.386Z,28.75
2022-08-17T16:37:45.873Z,26.55
2022-08-17T16:40:13.449Z,28.15
2022-08-17T16:42:40.717Z,28.33
2022-08-17T16:45:13.012Z,26.05
2022-08-17T16:47:41.805Z,26.10
2022-08-17T16:50:10.087Z,28.65
2022-08-17T16:52:37.826Z,28.48
2022-08-17T16:55:05.330Z,29.85
2022-08-17T16:57:32.597Z,27.05
2022-08-17T16:59:59.690Z,26.25
2022-08-17T17:02:26.843Z,28.83
2022-08-17T17:04:57.570Z,27.75
2022-08-17T17:07:40.731Z,28.05
2022-08-17T17:10:15.599Z,28.33
2022-08-17T17:13:02.939Z,28.33
2022-08-17T17:15:37.213Z,26.70
2022-08-17T17:18:06.887Z,25.05
2022-08-17T17:20:45.790Z,25.63
2022-08-17T17:23:21.085Z,26.02
2022-08-17T17:25:57.013Z,25.75
2022-08-17T17:28:34.731Z,24.77
2022-08-17T17:31:06.789Z,27.60
2022-08-17T17:33:57.256Z,27.98
2022-08-17T17:36:33.504Z,24.30
2022-08-17T17:39:20.873Z,26.75
2022-08-17T17:41:49.616Z,23.92
2022-08-17T17:44:19.705Z,28.33
2022-08-17T17:46:51.722Z,26.73
2022-08-17T17:49:19.374Z,25.27
2022-08-17T17:52:06.591Z,25.02
2022-08-17T17:54:50.378Z,26.70
2022-08-17T17:57:18.215Z,26.92
2022-08-17T17:59:45.301Z,26.63
2022-08-17T18:02:45.865Z,26.15
2022-08-17T18:05:30.371Z,28.23
2022-08-17T18:08:10.755Z,30.45
2022-08-17T18:10:49.246Z,32.22
2022-08-17T18:13:35.430Z,28.75
2022-08-17T18:16:04.817Z,31.38
2022-08-17T18:18:39.113Z,34.83
2022-08-17T18:23:34.477Z,38.58
2022-08-17T18:26:02.370Z,37.33
2022-08-17T18:28:29.496Z,49.05
2022-08-17T18:31:08.109Z,43.72
2022-08-17T18:33:35.690Z,40.38
2022-08-17T18:36:02.873Z,43.60
2022-08-17T18:38:34.371Z,44.08
2022-08-17T18:41:03.525Z,43.80
2022-08-17T18:43:44.171Z,44.95
2022-08-17T18:46:28.308Z,44.35
2022-08-17T18:49:01.374Z,47.58
2022-08-17T18:51:40.315Z,42.65
2022-08-17T18:54:17.889Z,45.92
2022-08-17T18:56:50.950Z,36.05
2022-08-17T18:59:27.004Z,44.90
2022-08-17T19:02:03.327Z,41.05
2022-08-17T19:04:53.398Z,27.75
2022-08-17T19:07:24.792Z,33.10
2022-08-17T19:09:59.981Z,38.05
2022-08-17T19:12:30.110Z,29.75
2022-08-17T19:14:57.837Z,36.42
2022-08-17T19:17:30.963Z,40.35
2022-08-17T19:19:58.043Z,28.65
2022-08-17T19:22:33.292Z,27.58
2022-08-17T19:25:09.423Z,36.63
2022-08-17T19:27:46.435Z,30.30
2022-08-17T19:30:16.515Z,30.00
2022-08-17T19:32:43.732Z,28.70
2022-08-17T19:35:17.125Z,28.33
2022-08-17T19:38:02.658Z,32.60
2022-08-17T19:40:54.696Z,26.95
2022-08-17T19:43:32.066Z,27.23
2022-08-17T19:46:11.516Z,25.73
2022-08-17T19:49:01.149Z,23.00
2022-08-17T19:51:36.791Z,22.27
2022-08-17T19:54:07.515Z,20.60
2022-08-17T19:56:57.905Z,27.90
2022-08-17T19:59:48.665Z,33.60
2022-08-17T20:02:24.851Z,29.40
2022-08-17T20:04:53.558Z,24.98
2022-08-17T20:07:23.068Z,25.52
2022-08-17T20:09:50.147Z,30.23
2022-08-17T20:12:18.866Z,24.05
2022-08-17T20:14:53.843Z,29.23
2022-08-17T20:17:23.391Z,32.42
2022-08-17T20:19:52.081Z,30.52
2022-08-17T20:22:57.805Z,33.17
2022-08-17T20:25:30.549Z,34.17
2022-08-17T20:28:06.369Z,26.58
2022-08-17T20:30:39.612Z,30.45
2022-08-17T20:33:09.049Z,33.88
2022-08-17T20:35:41.549Z,34.15
2022-08-17T20:40:38.329Z,38.60
2022-08-17T20:43:24.051Z,35.92
2022-08-17T20:45:56.135Z,36.63
2022-08-17T20:48:37.875Z,37.83
2022-08-17T20:51:32.499Z,34.85
2022-08-17T20:54:05.506Z,37.40
2022-08-17T20:56:44.767Z,40.22
2022-08-17T20:59:28.446Z,39.63
2022-08-17T21:02:17.478Z,37.10
2022-08-17T21:04:47.309Z,39.42
2022-08-17T21:07:43.160Z,44.28
2022-08-17T21:10:10.851Z,36.83
2022-08-17T21:12:42.758Z,39.40
2022-08-17T21:15:24.017Z,44.45
2022-08-17T21:18:00.646Z,38.10
2022-08-17T21:20:35.270Z,39.03
2022-08-17T21:23:02.365Z,38.08
2022-08-17T21:25:46.317Z,34.13
2022-08-17T21:28:14.136Z,37.20
2022-08-17T21:30:41.219Z,36.72
2022-08-17T21:33:11.678Z,36.22
2022-08-17T21:35:49.344Z,34.72
2022-08-17T21:38:19.497Z,31.58
2022-08-17T21:40:49.902Z,33.22
2022-08-17T21:43:24.431Z,31.70
2022-08-17T21:46:14.458Z,34.97
2022-08-17T21:48:43.775Z,31.23
2022-08-17T21:51:24.358Z,40.17
2022-08-17T21:56:38.789Z,31.80
2022-08-17T21:59:08.165Z,33.17
2022-08-17T22:01:35.427Z,31.35
2022-08-17T22:04:05.361Z,33.47
2022-08-17T22:06:38.270Z,34.85
2022-08-17T22:09:07.583Z,31.17
2022-08-17T22:11:47.865Z,34.65
2022-08-17T22:14:20.125Z,35.70
2022-08-17T22:16:48.088Z,34.55
2022-08-17T22:19:15.768Z,32.75
2022-08-17T22:21:42.936Z,33.28
2022-08-17T22:24:21.660Z,35.92
2022-08-17T22:27:04.579Z,27.83
2022-08-17T22:29:42.811Z,31.13
2022-08-17T22:32:10.069Z,29.13
2022-08-17T22:34:38.460Z,29.42
2022-08-17T22:39:35.425Z,27.13
2022-08-17T22:42:02.564Z,25.83
2022-08-17T22:44:31.879Z,26.58
2022-08-17T22:47:00.898Z,28.50
2022-08-17T22:49:53.112Z,27.92
2022-08-17T22:52:29.191Z,27.42
2022-08-17T22:55:36.095Z,24.13
2022-08-17T22:58:58.819Z,24.52
2022-08-17T23:01:28.593Z,26.40
2022-08-17T23:04:04.004Z,23.40
2022-08-17T23:06:33.808Z,25.98
2022-08-17T23:09:03.677Z,26.77
2022-08-17T23:11:36.923Z,22.73
2022-08-17T23:14:16.476Z,27.30
2022-08-17T23:16:43.625Z,25.85
2022-08-17T23:19:15.583Z,26.33
2022-08-17T23:21:44.813Z,23.42
2022-08-17T23:24:15.292Z,25.15
2022-08-17T23:26:42.382Z,24.25
2022-08-17T23:29:10.000Z,26.20
2022-08-17T23:31:38.551Z,22.50
2022-08-17T23:34:07.784Z,24.88
2022-08-17T23:36:36.411Z,26.67
2022-08-17T23:39:03.876Z,27.83
2022-08-17T23:41:33.509Z,26.75
2022-08-17T23:44:01.514Z,25.92
2022-08-17T23:46:28.712Z,23.67
2022-08-17T23:48:55.829Z,23.65
2022-08-17T23:51:28.107Z,28.25
2022-08-17T23:53:56.398Z,26.30
2022-08-17T23:56:26.292Z,29.27
2022-08-17T23:58:54.872Z,29.92
